Time;durP1;ratioP1;P1;durP2;ratioP2;P2;SDS_P1;SDS_P2;PMS_P1;PMS_P2;Temp;Humidity;BMP_temperature;BMP_pressure;BME280_temperature;BME280_humidity;BME280_pressure;Samples;Min_cycle;Max_cycle;Signal;HPM_P1;HPM_P2
2023/08/08 00:01:25;;;;;;;1.1;1;;;;;;;;;;;;;
2023/08/08 00:03:50;;;;;;;0.7;0.7;;;;;;;;;;;;;
2023/08/08 00:06:15;;;;;;;1.3;1;;;;;;;;;;;;;
2023/08/08 00:08:41;;;;;;;1.2;0.9;;;;;;;;;;;;;
2023/08/08 00:11:06;;;;;;;1.5;1.1;;;;;;;;;;;;;
2023/08/08 00:13:31;;;;;;;1.1;0.9;;;;;;;;;;;;;
2023/08/08 00:15:57;;;;;;;1.1;1;;;;;;;;;;;;;
2023/08/08 00:18:22;;;;;;;1.2;0.9;;;;;;;;;;;;;
2023/08/08 00:20:49;;;;;;;1.3;1.1;;;;;;;;;;;;;
2023/08/08 00:23:14;;;;;;;1.6;1;;;;;;;;;;;;;
2023/08/08 00:25:39;;;;;;;2.3;1.3;;;;;;;;;;;;;
2023/08/08 00:28:04;;;;;;;1.2;1.1;;;;;;;;;;;;;
2023/08/08 00:30:30;;;;;;;1.5;1.1;;;;;;;;;;;;;
2023/08/08 00:32:55;;;;;;;2.9;1.4;;;;;;;;;;;;;
2023/08/08 00:35:21;;;;;;;2.3;1.3;;;;;;;;;;;;;
2023/08/08 00:37:46;;;;;;;1.1;0.9;;;;;;;;;;;;;
2023/08/08 00:40:11;;;;;;;2.8;1.2;;;;;;;;;;;;;
2023/08/08 00:42:36;;;;;;;2.6;1.1;;;;;;;;;;;;;
2023/08/08 00:45:03;;;;;;;1.2;1;;;;;;;;;;;;;
2023/08/08 00:47:27;;;;;;;1.5;1.1;;;;;;;;;;;;;
2023/08/08 00:49:51;;;;;;;2.1;1;;;;;;;;;;;;;
2023/08/08 00:52:17;;;;;;;3.1;0.8;;;;;;;;;;;;;
2023/08/08 00:54:45;;;;;;;2.2;0.9;;;;;;;;;;;;;
2023/08/08 00:57:10;;;;;;;2.3;1.2;;;;;;;;;;;;;
2023/08/08 00:59:36;;;;;;;0.9;0.9;;;;;;;;;;;;;
2023/08/08 01:02:01;;;;;;;1.1;1;;;;;;;;;;;;;
2023/08/08 01:04:26;;;;;;;1.3;1;;;;;;;;;;;;;
2023/08/08 01:06:51;;;;;;;0.7;0.7;;;;;;;;;;;;;
2023/08/08 01:09:16;;;;;;;2.5;1.3;;;;;;;;;;;;;
2023/08/08 01:11:41;;;;;;;1.1;1;;;;;;;;;;;;;
2023/08/08 01:14:07;;;;;;;1.2;0.8;;;;;;;;;;;;;
2023/08/08 01:16:32;;;;;;;1.6;1;;;;;;;;;;;;;
2023/08/08 01:18:57;;;;;;;1.1;1;;;;;;;;;;;;;
2023/08/08 01:21:22;;;;;;;1.1;1;;;;;;;;;;;;;
2023/08/08 01:23:51;;;;;;;1.2;1.1;;;;;;;;;;;;;
2023/08/08 01:26:16;;;;;;;1;1;;;;;;;;;;;;;
2023/08/08 01:28:42;;;;;;;1.1;0.9;;;;;;;;;;;;;
2023/08/08 01:31:07;;;;;;;1.1;1;;;;;;;;;;;;;
2023/08/08 01:33:32;;;;;;;1;0.9;;;;;;;;;;;;;
2023/08/08 01:35:57;;;;;;;1;0.9;;;;;;;;;;;;;
2023/08/08 01:38:23;;;;;;;1.3;1;;;;;;;;;;;;;
2023/08/08 01:40:48;;;;;;;1.8;0.8;;;;;;;;;;;;;
2023/08/08 01:43:18;;;;;;;1.1;1;;;;;;;;;;;;;
2023/08/08 01:45:42;;;;;;;2.1;0.8;;;;;;;;;;;;;
2023/08/08 01:48:07;;;;;;;1.9;1;;;;;;;;;;;;;
2023/08/08 01:50:32;;;;;;;0.9;0.8;;;;;;;;;;;;;
2023/08/08 01:52:57;;;;;;;0.9;0.9;;;;;;;;;;;;;
2023/08/08 01:55:22;;;;;;;1.7;1.1;;;;;;;;;;;;;
2023/08/08 01:57:47;;;;;;;0.8;0.8;;;;;;;;;;;;;
2023/08/08 02:00:13;;;;;;;1.4;1.1;;;;;;;;;;;;;
2023/08/08 02:02:37;;;;;;;1.4;1;;;;;;;;;;;;;
2023/08/08 02:05:03;;;;;;;1.2;0.9;;;;;;;;;;;;;
2023/08/08 02:07:29;;;;;;;1.1;1;;;;;;;;;;;;;
2023/08/08 02:09:55;;;;;;;1.1;0.9;;;;;;;;;;;;;
2023/08/08 02:12:19;;;;;;;0.8;0.8;;;;;;;;;;;;;
2023/08/08 02:14:45;;;;;;;1.2;1.1;;;;;;;;;;;;;
2023/08/08 02:17:10;;;;;;;1.7;1;;;;;;;;;;;;;
2023/08/08 02:19:35;;;;;;;1.1;1;;;;;;;;;;;;;
2023/08/08 02:22:00;;;;;;;1.5;0.9;;;;;;;;;;;;;
2023/08/08 02:24:25;;;;;;;1.2;1;;;;;;;;;;;;;
2023/08/08 02:26:50;;;;;;;2.2;1;;;;;;;;;;;;;
2023/08/08 02:29:15;;;;;;;1.8;1.1;;;;;;;;;;;;;
2023/08/08 02:31:41;;;;;;;1.7;1.3;;;;;;;;;;;;;
2023/08/08 02:34:06;;;;;;;1.1;1;;;;;;;;;;;;;
2023/08/08 02:36:33;;;;;;;1.3;1;;;;;;;;;;;;;
2023/08/08 02:38:57;;;;;;;1.2;1.1;;;;;;;;;;;;;
2023/08/08 02:41:22;;;;;;;1.7;1.1;;;;;;;;;;;;;
2023/08/08 02:43:47;;;;;;;1.4;1.3;;;;;;;;;;;;;
2023/08/08 02:46:12;;;;;;;1.3;1.2;;;;;;;;;;;;;
2023/08/08 02:48:38;;;;;;;1.2;0.9;;;;;;;;;;;;;
2023/08/08 02:51:04;;;;;;;1.2;1.1;;;;;;;;;;;;;
2023/08/08 02:53:30;;;;;;;2.6;1.1;;;;;;;;;;;;;
2023/08/08 02:55:55;;;;;;;1;0.9;;;;;;;;;;;;;
2023/08/08 02:58:20;;;;;;;1.1;0.8;;;;;;;;;;;;;
2023/08/08 03:00:46;;;;;;;1.2;0.9;;;;;;;;;;;;;
2023/08/08 03:03:11;;;;;;;1;1;;;;;;;;;;;;;
2023/08/08 03:05:36;;;;;;;1.3;1;;;;;;;;;;;;;
2023/08/08 03:08:01;;;;;;;1.6;1.1;;;;;;;;;;;;;
2023/08/08 03:10:26;;;;;;;2.1;1;;;;;;;;;;;;;
2023/08/08 03:12:51;;;;;;;1.2;1.1;;;;;;;;;;;;;
2023/08/08 03:15:16;;;;;;;1.5;1.1;;;;;;;;;;;;;
2023/08/08 03:17:44;;;;;;;1.9;0.9;;;;;;;;;;;;;
2023/08/08 03:20:10;;;;;;;1.8;0.9;;;;;;;;;;;;;
2023/08/08 03:22:36;;;;;;;1.3;1.2;;;;;;;;;;;;;
2023/08/08 03:25:01;;;;;;;1.2;1.1;;;;;;;;;;;;;
2023/08/08 03:27:27;;;;;;;1.2;1.1;;;;;;;;;;;;;
2023/08/08 03:29:52;;;;;;;1.5;1.2;;;;;;;;;;;;;
2023/08/08 03:32:18;;;;;;;1.8;1;;;;;;;;;;;;;
2023/08/08 03:34:43;;;;;;;1.1;1;;;;;;;;;;;;;
2023/08/08 03:37:09;;;;;;;1.3;0.9;;;;;;;;;;;;;
2023/08/08 03:39:34;;;;;;;2.7;1.2;;;;;;;;;;;;;
2023/08/08 03:42:00;;;;;;;1.6;1.2;;;;;;;;;;;;;
2023/08/08 03:44:25;;;;;;;1.6;1;;;;;;;;;;;;;
2023/08/08 03:46:51;;;;;;;3.1;1.1;;;;;;;;;;;;;
2023/08/08 03:49:16;;;;;;;1.2;1;;;;;;;;;;;;;
2023/08/08 03:51:41;;;;;;;1.5;1;;;;;;;;;;;;;
2023/08/08 03:54:08;;;;;;;1.9;1.3;;;;;;;;;;;;;
2023/08/08 03:56:33;;;;;;;2.1;1.4;;;;;;;;;;;;;
2023/08/08 03:58:58;;;;;;;2.4;1.4;;;;;;;;;;;;;
2023/08/08 04:02:34;;;;;;;4.5;1.4;;;;;;;9.2;93.54004;940.2297;;;;
2023/08/08 04:04:59;;;;;;;2.1;1.1;;;;;;;9.27;93.09961;940.283;;;;
2023/08/08 04:07:29;;;;;;;2.1;1.4;;;;;;;9.25;92.96875;940.2999;;;;
2023/08/08 04:09:58;;;;;;;1.4;1.1;;;;;;;9.24;92.80957;940.3047;;;;
2023/08/08 04:12:23;;;;;;;2.2;1.3;;;;;;;9.22;93.00879;940.317;;;;
2023/08/08 04:14:51;;;;;;;3.2;1.4;;;;;;;9.2;93.06348;940.3045;;;;
2023/08/08 04:17:16;;;;;;;3.8;1.4;;;;;;;9.2;92.66504;940.2615;;;;
2023/08/08 04:19:46;;;;;;;1.6;1.1;;;;;;;9.03;93.36816;940.199;;;;
2023/08/08 04:22:11;;;;;;;1.6;1.3;;;;;;;9.03;93.85742;940.2878;;;;
2023/08/08 04:24:40;;;;;;;1.8;1.5;;;;;;;9.12;93.36426;940.2888;;;;
2023/08/08 04:27:05;;;;;;;2.5;1.5;;;;;;;9.1;93.23535;940.2972;;;;
2023/08/08 04:29:32;;;;;;;3.1;1.6;;;;;;;9.1;93.0625;940.332;;;;
2023/08/08 04:31:57;;;;;;;1.7;1.6;;;;;;;9.07;93.41016;940.3688;;;;
2023/08/08 04:34:24;;;;;;;3.7;2.1;;;;;;;9.08;93.08203;940.2935;;;;
2023/08/08 04:36:49;;;;;;;3.2;2.1;;;;;;;9.04;93.02637;940.3801;;;;
2023/08/08 04:39:17;;;;;;;3.8;2.4;;;;;;;9.08;92.84277;940.3603;;;;
2023/08/08 04:41:42;;;;;;;3;1.5;;;;;;;9.05;92.80273;940.3772;;;;
2023/08/08 04:44:07;;;;;;;2.2;1.6;;;;;;;9.07;92.5127;940.43;;;;
2023/08/08 04:46:32;;;;;;;3.2;1.7;;;;;;;9.08;92.27344;940.4548;;;;
2023/08/08 04:48:59;;;;;;;1.5;1.4;;;;;;;8.96;92.79492;940.473;;;;
2023/08/08 04:51:24;;;;;;;1.9;1.5;;;;;;;8.94;93.52832;940.5385;;;;
2023/08/08 04:53:51;;;;;;;4.7;1.9;;;;;;;9.07;93.58008;940.5014;;;;
2023/08/08 04:56:16;;;;;;;1.9;1.6;;;;;;;9.19;92.61523;940.4814;;;;
2023/08/08 04:58:43;;;;;;;4.3;1.6;;;;;;;9.24;92.29688;940.5223;;;;
2023/08/08 05:01:14;;;;;;;2;1.6;;;;;;;9.25;91.92383;940.5503;;;;
2023/08/08 05:03:33;;;;;;;3.7;2.3;;;;;;;9.24;91.87402;940.4771;;;;
2023/08/08 05:05:59;;;;;;;3.3;2;;;;;;;9.19;92.02344;940.5316;;;;
2023/08/08 05:08:23;;;;;;;2.9;1.8;;;;;;;9.2;91.79785;940.4808;;;;
2023/08/08 05:10:51;;;;;;;1.6;1.5;;;;;;;9.23;92.05664;940.4713;;;;
2023/08/08 05:13:16;;;;;;;1.8;1.6;;;;;;;9.2;91.51563;940.4252;;;;
2023/08/08 05:15:44;;;;;;;2;1.5;;;;;;;9.28;91.46289;940.4705;;;;
2023/08/08 05:18:09;;;;;;;3.1;1.8;;;;;;;9.33;90.98242;940.5135;;;;
2023/08/08 05:20:35;;;;;;;1.6;1.5;;;;;;;9.27;91.38086;940.5388;;;;
2023/08/08 05:23:00;;;;;;;2;1.6;;;;;;;9.29;91.23633;940.509;;;;
2023/08/08 05:25:29;;;;;;;2.6;1.6;;;;;;;9.32;91.28809;940.4919;;;;
2023/08/08 05:27:54;;;;;;;1.8;1.3;;;;;;;9.29;91.19141;940.5336;;;;
2023/08/08 05:30:21;;;;;;;2.8;1.5;;;;;;;9.34;92.15918;940.3906;;;;
2023/08/08 05:32:46;;;;;;;1.9;1.5;;;;;;;10.19;89.39746;940.3812;;;;
2023/08/08 05:35:13;;;;;;;2.2;1.3;;;;;;;11.26;82.83594;940.3994;;;;
2023/08/08 05:37:38;;;;;;;2.2;1.3;;;;;;;12.55;77.34668;940.3825;;;;
2023/08/08 05:40:06;;;;;;;3.3;1.4;;;;;;;14.23;71.55469;940.3447;;;;
2023/08/08 05:42:31;;;;;;;1.7;1.2;;;;;;;15.44;64.88379;940.3287;;;;
2023/08/08 05:44:59;;;;;;;2.6;1.4;;;;;;;16.15;61.09082;940.3914;;;;
2023/08/08 05:47:24;;;;;;;2.7;1.3;;;;;;;17.02;59.01074;940.3464;;;;
2023/08/08 05:49:49;;;;;;;2.4;1.4;;;;;;;17.18;57.66406;940.2383;;;;
2023/08/08 05:52:18;;;;;;;2.7;1.3;;;;;;;18.14;55.37305;940.2566;;;;
2023/08/08 05:54:43;;;;;;;1.9;1.1;;;;;;;17.81;56.0752;940.2363;;;;
2023/08/08 06:00:44;;;;;;;1.1;1;;;;;;;19.49;49.96094;940.2856;;;;
2023/08/08 06:03:10;;;;;;;1.2;0.9;;;;;;;17.93;52.39844;940.2128;;;;
2023/08/08 06:05:35;;;;;;;3;1.2;;;;;;;16.75;55.19727;940.2541;;;;
2023/08/08 06:08:00;;;;;;;1.1;1;;;;;;;18.31;52.89648;940.2151;;;;
2023/08/08 06:10:28;;;;;;;1.3;1.1;;;;;;;18.9;51.98828;940.2695;;;;
2023/08/08 06:12:58;;;;;;;0.8;0.8;;;;;;;18.89;50.71875;940.1913;;;;
2023/08/08 06:15:23;;;;;;;1;0.9;;;;;;;19.11;51.97852;940.1752;;;;
2023/08/08 06:17:51;;;;;;;2.5;1.2;;;;;;;18.74;49.8877;940.2043;;;;
2023/08/08 06:20:16;;;;;;;2.3;1.4;;;;;;;17.66;55.15039;940.1617;;;;
2023/08/08 06:22:45;;;;;;;1.3;1.1;;;;;;;17.43;53.55566;940.1228;;;;
2023/08/08 06:25:14;;;;;;;1.6;1;;;;;;;16.71;55.47266;940.1322;;;;
2023/08/08 06:27:39;;;;;;;1.5;0.9;;;;;;;17;55.26465;940.134;;;;
2023/08/08 06:30:04;;;;;;;0.9;0.9;;;;;;;17.54;53.53418;940.0117;;;;
2023/08/08 06:32:29;;;;;;;1.5;1;;;;;;;16.09;56.3418;940.0424;;;;
2023/08/08 06:34:58;;;;;;;1.2;0.9;;;;;;;17.23;55.61719;940.0472;;;;
2023/08/08 06:37:22;;;;;;;1.1;0.9;;;;;;;17.98;52.34375;940.0244;;;;
2023/08/08 06:39:48;;;;;;;0.8;0.8;;;;;;;20.26;47.80664;940.0388;;;;
2023/08/08 06:42:13;;;;;;;1.9;0.9;;;;;;;21.05;46.55762;939.9773;;;;
2023/08/08 06:44:38;;;;;;;1;0.7;;;;;;;21.02;45.03613;939.9892;;;;
2023/08/08 06:47:05;;;;;;;0.8;0.8;;;;;;;19.52;46.02441;939.9822;;;;
2023/08/08 06:49:30;;;;;;;1;0.9;;;;;;;18.54;48.2832;939.943;;;;
2023/08/08 06:51:57;;;;;;;1.2;1;;;;;;;18.52;52.26953;939.9079;;;;
2023/08/08 06:54:22;;;;;;;0.9;0.8;;;;;;;18.1;50.12891;939.8953;;;;
2023/08/08 06:56:52;;;;;;;3.4;1.1;;;;;;;18.25;50.66895;939.8947;;;;
2023/08/08 06:59:22;;;;;;;1;0.9;;;;;;;19;52.75684;939.8688;;;;
2023/08/08 07:01:46;;;;;;;2.8;1.1;;;;;;;20.11;46.63379;939.8936;;;;
2023/08/08 07:04:12;;;;;;;1.9;0.9;;;;;;;20.77;45.69922;939.7852;;;;
2023/08/08 07:06:37;;;;;;;2.9;1;;;;;;;20.97;44.9248;939.7807;;;;
2023/08/08 07:09:03;;;;;;;0.8;0.8;;;;;;;20.92;43.55176;939.796;;;;
2023/08/08 07:11:28;;;;;;;1.4;0.8;;;;;;;21.58;45.15137;939.781;;;;
2023/08/08 07:13:54;;;;;;;1.2;0.9;;;;;;;21.8;44.6582;939.725;;;;
2023/08/08 07:16:19;;;;;;;0.8;0.8;;;;;;;22.08;44.0752;939.7252;;;;
2023/08/08 07:18:44;;;;;;;1.1;0.8;;;;;;;21.48;42.3418;939.6917;;;;
2023/08/08 07:21:10;;;;;;;0.9;0.8;;;;;;;22.45;41.87207;939.5966;;;;
2023/08/08 07:23:41;;;;;;;1.5;0.9;;;;;;;22.93;43.30273;939.5725;;;;
2023/08/08 07:26:41;;;;;;;1.4;0.9;;;;;;;24;40.90039;939.5631;;;;
2023/08/08 07:29:09;;;;;;;1;0.9;;;;;;;22.87;41.94727;939.5256;;;;
2023/08/08 07:31:34;;;;;;;1;0.9;;;;;;;22.87;40.26855;939.472;;;;
2023/08/08 07:34:00;;;;;;;1.7;1;;;;;;;23.78;39.73828;939.5074;;;;
2023/08/08 07:36:25;;;;;;;0.7;0.7;;;;;;;24.39;37.58887;939.4114;;;;
2023/08/08 07:38:51;;;;;;;0.8;0.8;;;;;;;24.87;36.40234;939.3972;;;;
2023/08/08 07:41:17;;;;;;;1.2;1.1;;;;;;;23.67;38.75195;939.4125;;;;
2023/08/08 07:43:42;;;;;;;1;1;;;;;;;23.97;37.12988;939.3699;;;;
2023/08/08 07:46:45;;;;;;;1.5;0.8;;;;;;;25.12;38.57129;939.3301;;;;
2023/08/08 07:49:13;;;;;;;0.8;0.8;;;;;;;26.83;32.29688;939.3293;;;;
2023/08/08 07:51:38;;;;;;;0.9;0.9;;;;;;;27.39;33.35645;939.3133;;;;
2023/08/08 07:54:08;;;;;;;0.7;0.7;;;;;;;27.02;32.22754;939.2171;;;;
2023/08/08 07:56:31;;;;;;;0.8;0.8;;;;;;;26.82;31.37207;939.1891;;;;
2023/08/08 07:58:57;;;;;;;1.1;0.9;;;;;;;25.77;34.06445;939.1192;;;;
2023/08/08 08:01:47;;;;;;;0.7;0.7;;;;;;;24.23;34.52441;939.0938;;;;
2023/08/08 08:04:12;;;;;;;1;0.9;;;;;;;27.03;33.25879;939.0541;;;;
2023/08/08 08:06:37;;;;;;;1.9;0.8;;;;;;;25.43;33.1416;939.0287;;;;
2023/08/08 08:09:06;;;;;;;1;0.9;;;;;;;26.49;33.51563;939.0051;;;;
2023/08/08 08:11:32;;;;;;;1;0.9;;;;;;;27.32;32.29688;938.9963;;;;
2023/08/08 08:13:58;;;;;;;1;0.9;;;;;;;27;31.05273;938.9902;;;;
2023/08/08 08:18:49;;;;;;;1.2;0.7;;;;;;;26.99;31.75098;938.952;;;;
2023/08/08 08:21:17;;;;;;;1.1;0.8;;;;;;;26.21;31.79102;938.8723;;;;
2023/08/08 08:23:39;;;;;;;1.4;1;;;;;;;26.2;33.86035;938.8628;;;;
2023/08/08 08:26:04;;;;;;;1;0.8;;;;;;;26.68;31.48047;938.8265;;;;
2023/08/08 08:28:33;;;;;;;0.7;0.7;;;;;;;27.18;32.67773;938.8309;;;;
2023/08/08 08:31:01;;;;;;;1.1;1;;;;;;;28.24;32.08984;938.7709;;;;
2023/08/08 08:33:26;;;;;;;0.8;0.8;;;;;;;28.61;29.53418;938.7725;;;;
2023/08/08 08:35:53;;;;;;;1.1;1;;;;;;;28.54;30.92188;938.738;;;;
2023/08/08 08:38:19;;;;;;;1.1;1;;;;;;;28.83;31.31055;938.7294;;;;
2023/08/08 08:40:47;;;;;;;2.5;0.8;;;;;;;28.59;29.92578;938.6599;;;;
2023/08/08 08:43:11;;;;;;;1.4;1.1;;;;;;;28.91;28.76855;938.5978;;;;
2023/08/08 08:45:36;;;;;;;0.8;0.8;;;;;;;29.4;28.15723;938.5547;;;;
2023/08/08 08:48:01;;;;;;;2.1;0.8;;;;;;;29.51;29.31934;938.5411;;;;
2023/08/08 08:50:28;;;;;;;0.7;0.7;;;;;;;29.28;28.9707;938.51;;;;
2023/08/08 08:52:55;;;;;;;1.6;1.2;;;;;;;27.72;29.09668;938.5706;;;;
2023/08/08 08:55:20;;;;;;;1.5;1.3;;;;;;;26.91;31.54492;938.5614;;;;
2023/08/08 08:57:46;;;;;;;2;0.9;;;;;;;25.7;33.58594;938.4785;;;;
2023/08/08 09:00:12;;;;;;;1.1;0.9;;;;;;;26.17;33.7168;938.5;;;;
2023/08/08 09:02:37;;;;;;;2.2;0.9;;;;;;;27.18;29.8916;938.4899;;;;
2023/08/08 09:05:48;;;;;;;1.4;1;;;;;;;25.94;32.45703;938.4546;;;;
2023/08/08 09:08:13;;;;;;;1.2;0.9;;;;;;;26.66;30.16504;938.4498;;;;
2023/08/08 09:10:37;;;;;;;1.4;1.1;;;;;;;25.99;33.65527;938.4274;;;;
2023/08/08 09:13:42;;;;;;;1.3;0.9;;;;;;;26;29.74121;938.3856;;;;
2023/08/08 09:16:08;;;;;;;0.7;0.7;;;;;;;26.04;33.16211;938.3078;;;;
2023/08/08 09:18:33;;;;;;;1.1;1;;;;;;;24.76;38.35059;938.2492;;;;
2023/08/08 09:21:02;;;;;;;1.1;0.9;;;;;;;25.89;32.0166;938.1869;;;;
2023/08/08 09:23:27;;;;;;;1.2;0.9;;;;;;;25.52;34.06934;938.218;;;;
2023/08/08 09:25:56;;;;;;;1.1;1;;;;;;;25.54;32.59375;938.1127;;;;
2023/08/08 09:28:21;;;;;;;1.1;1;;;;;;;25.46;34.76172;938.1786;;;;
2023/08/08 09:30:49;;;;;;;1;0.9;;;;;;;24.23;37.5625;938.1487;;;;
2023/08/08 09:33:14;;;;;;;1.9;0.9;;;;;;;24.14;34.03516;938.1297;;;;
2023/08/08 09:35:39;;;;;;;1;0.9;;;;;;;24.06;35.24121;938.12;;;;
2023/08/08 09:38:07;;;;;;;1.2;1.1;;;;;;;23.39;38.44531;938.1035;;;;
2023/08/08 09:40:32;;;;;;;1.1;0.8;;;;;;;23.89;37.44043;938.0808;;;;
2023/08/08 09:43:00;;;;;;;1.2;1;;;;;;;23.68;39.21191;938.0544;;;;
2023/08/08 09:45:24;;;;;;;2;1.1;;;;;;;24.27;37.91992;938.0161;;;;
2023/08/08 09:47:50;;;;;;;1.3;0.9;;;;;;;23.53;34.90527;937.9891;;;;
2023/08/08 09:50:15;;;;;;;1.6;0.9;;;;;;;23.02;37.73145;937.96;;;;
2023/08/08 09:52:43;;;;;;;1.9;1.1;;;;;;;23.42;37.00195;937.9828;;;;
2023/08/08 09:55:08;;;;;;;1.1;0.8;;;;;;;23.91;35.25391;937.8861;;;;
2023/08/08 09:57:33;;;;;;;0.7;0.7;;;;;;;23.96;40.50781;937.8937;;;;
2023/08/08 09:59:59;;;;;;;1.6;1;;;;;;;24.27;37.06055;937.8654;;;;
2023/08/08 10:02:24;;;;;;;0.8;0.8;;;;;;;24.4;36.50586;937.8314;;;;
2023/08/08 10:04:49;;;;;;;1.6;0.9;;;;;;;24.21;35.91309;937.7816;;;;
2023/08/08 10:07:15;;;;;;;1.8;1;;;;;;;24.15;31.57422;937.7924;;;;
2023/08/08 10:09:40;;;;;;;2.3;0.9;;;;;;;24.53;32.4375;937.8081;;;;
2023/08/08 10:12:07;;;;;;;0.8;0.8;;;;;;;24.82;34.9707;937.8024;;;;
2023/08/08 10:14:32;;;;;;;1.6;1;;;;;;;25.25;31.32129;937.7533;;;;
2023/08/08 10:16:58;;;;;;;0.8;0.7;;;;;;;24.86;33.72461;937.759;;;;
2023/08/08 10:19:23;;;;;;;0.8;0.8;;;;;;;23.61;38.95801;937.7511;;;;
2023/08/08 10:21:48;;;;;;;1;0.9;;;;;;;23.4;40.4209;937.7667;;;;
2023/08/08 10:24:13;;;;;;;1;0.8;;;;;;;23.58;36.73242;937.6996;;;;
2023/08/08 10:26:39;;;;;;;1;0.9;;;;;;;24.1;39.12988;937.6539;;;;
2023/08/08 10:29:05;;;;;;;1.6;0.9;;;;;;;24.1;38.61328;937.613;;;;
2023/08/08 10:31:30;;;;;;;0.9;0.7;;;;;;;23.77;38.5127;937.6351;;;;
2023/08/08 10:33:55;;;;;;;1.8;0.9;;;;;;;23.79;41.49219;937.6739;;;;
2023/08/08 10:36:20;;;;;;;1.1;1;;;;;;;24.55;38.13379;937.6116;;;;
2023/08/08 10:38:46;;;;;;;1.5;0.7;;;;;;;23.65;37.33887;937.5862;;;;
2023/08/08 10:41:10;;;;;;;1.2;0.9;;;;;;;23.6;37.59277;937.6027;;;;
2023/08/08 10:43:40;;;;;;;1.7;1;;;;;;;24.11;37.07129;937.61;;;;
2023/08/08 10:46:03;;;;;;;1;0.8;;;;;;;24.85;38.00488;937.5764;;;;
2023/08/08 10:48:32;;;;;;;1;0.8;;;;;;;25.96;34.78906;937.5948;;;;
2023/08/08 10:50:58;;;;;;;1;0.9;;;;;;;26.91;34.24609;937.5833;;;;
2023/08/08 10:53:23;;;;;;;1.1;1;;;;;;;26.05;36.49805;937.5891;;;;
2023/08/08 10:55:50;;;;;;;0.8;0.7;;;;;;;26.86;35.13086;937.5246;;;;
2023/08/08 10:58:19;;;;;;;1;0.9;;;;;;;26.02;33.26758;937.4905;;;;
2023/08/08 11:00:41;;;;;;;1.1;0.8;;;;;;;26.12;36.55176;937.5159;;;;
2023/08/08 11:03:08;;;;;;;1.3;1;;;;;;;27.09;32.28027;937.4828;;;;
2023/08/08 11:05:33;;;;;;;1.6;0.9;;;;;;;26.64;34.60352;937.5264;;;;
2023/08/08 11:07:59;;;;;;;0.8;0.8;;;;;;;26.87;35.73633;937.4642;;;;
2023/08/08 11:10:30;;;;;;;1.4;1;;;;;;;27.03;36.31836;937.4738;;;;
2023/08/08 11:12:49;;;;;;;1.1;1;;;;;;;25.73;35.125;937.4638;;;;
2023/08/08 11:15:16;;;;;;;1.6;0.8;;;;;;;25.45;41.03223;937.5284;;;;
2023/08/08 11:17:42;;;;;;;1.9;1;;;;;;;25.98;37.6875;937.5311;;;;
2023/08/08 11:20:07;;;;;;;1.3;0.9;;;;;;;25.45;37.00488;937.5323;;;;
2023/08/08 11:22:33;;;;;;;1.4;0.9;;;;;;;26.69;34.44238;937.402;;;;
2023/08/08 11:25:03;;;;;;;1.6;0.8;;;;;;;27.11;35.02051;937.4333;;;;
2023/08/08 11:27:26;;;;;;;0.8;0.8;;;;;;;27.72;33.78516;937.4146;;;;
2023/08/08 11:29:52;;;;;;;1.3;0.9;;;;;;;27.16;35.3916;937.3839;;;;
2023/08/08 11:32:16;;;;;;;1.8;1;;;;;;;25.94;37.53125;937.4418;;;;
2023/08/08 11:34:42;;;;;;;2;1;;;;;;;25.52;36.71484;937.3474;;;;
2023/08/08 11:37:08;;;;;;;1.9;1;;;;;;;26.2;37.41016;937.3552;;;;
2023/08/08 11:39:36;;;;;;;0.9;0.8;;;;;;;26.11;37.33105;937.4185;;;;
2023/08/08 11:42:01;;;;;;;1.3;0.8;;;;;;;26.08;34.39551;937.3629;;;;
2023/08/08 11:44:29;;;;;;;0.9;0.8;;;;;;;25.42;36.88379;937.3006;;;;
2023/08/08 11:46:54;;;;;;;0.7;0.7;;;;;;;25.48;39.5;937.3574;;;;
2023/08/08 11:49:21;;;;;;;1.5;1;;;;;;;25.04;39.60254;937.2917;;;;
2023/08/08 11:51:45;;;;;;;1.6;0.9;;;;;;;24.88;38.79785;937.2572;;;;
2023/08/08 11:54:11;;;;;;;0.7;0.7;;;;;;;25.37;38.66309;937.2073;;;;
2023/08/08 11:56:37;;;;;;;1;0.9;;;;;;;25.16;39.8252;937.1583;;;;
2023/08/08 11:59:02;;;;;;;0.9;0.8;;;;;;;25.52;38.29785;937.1403;;;;
2023/08/08 12:01:33;;;;;;;1;0.8;;;;;;;25.83;38.77441;937.1111;;;;
2023/08/08 12:03:57;;;;;;;1.2;1;;;;;;;25.89;36.72266;937.1964;;;;
2023/08/08 12:06:22;;;;;;;1.7;1.3;;;;;;;26.01;36.12891;937.1355;;;;
2023/08/08 12:08:47;;;;;;;1.2;0.8;;;;;;;24.67;39.60449;937.133;;;;
2023/08/08 12:11:15;;;;;;;1;0.9;;;;;;;24.41;39.08691;937.0367;;;;
2023/08/08 12:13:41;;;;;;;0.8;0.8;;;;;;;24.52;38.81348;937.0528;;;;
2023/08/08 12:16:08;;;;;;;2.2;0.9;;;;;;;24.61;40.56641;937.0334;;;;
2023/08/08 12:18:33;;;;;;;1.2;0.8;;;;;;;24.33;39.91699;936.9565;;;;
2023/08/08 12:20:58;;;;;;;1.5;0.9;;;;;;;24.37;39.74316;936.9702;;;;
2023/08/08 12:23:23;;;;;;;0.8;0.8;;;;;;;24.44;39.87891;937.0901;;;;
2023/08/08 12:25:49;;;;;;;0.9;0.9;;;;;;;24.42;39.9707;937.0623;;;;
2023/08/08 12:28:14;;;;;;;0.9;0.8;;;;;;;24.84;39.87891;936.9587;;;;
2023/08/08 12:30:41;;;;;;;1.2;1;;;;;;;23.85;41.99219;937.0187;;;;
2023/08/08 12:33:06;;;;;;;1.7;0.7;;;;;;;24.39;39.93457;937.0563;;;;
2023/08/08 12:35:32;;;;;;;1.2;0.8;;;;;;;24.38;40.67578;937.0851;;;;
2023/08/08 12:37:57;;;;;;;1;0.8;;;;;;;24.18;42.8252;937.1108;;;;
2023/08/08 12:40:26;;;;;;;1.2;1;;;;;;;23.7;42.90723;937.0413;;;;
2023/08/08 12:42:51;;;;;;;1.4;1.2;;;;;;;23.67;44.41016;937.0228;;;;
2023/08/08 12:45:17;;;;;;;0.8;0.8;;;;;;;23.21;42.47266;937.0347;;;;
2023/08/08 12:47:41;;;;;;;1.4;0.9;;;;;;;23.81;41.3291;936.9711;;;;
2023/08/08 12:50:10;;;;;;;0.9;0.9;;;;;;;23.52;42.67871;936.889;;;;
2023/08/08 12:52:35;;;;;;;2.6;1;;;;;;;22.75;43.91992;936.9913;;;;
2023/08/08 12:55:04;;;;;;;1.6;1;;;;;;;22.74;45.06934;936.986;;;;
2023/08/08 12:57:29;;;;;;;1.4;1.1;;;;;;;23.47;41.68652;936.9925;;;;
2023/08/08 12:59:55;;;;;;;1.1;0.9;;;;;;;23.3;42.95117;936.9572;;;;
2023/08/08 13:02:21;;;;;;;1.1;0.9;;;;;;;23.13;44.4375;936.9698;;;;
2023/08/08 13:04:46;;;;;;;1.9;1;;;;;;;23.31;45.17383;936.9576;;;;
2023/08/08 13:07:11;;;;;;;1.6;0.8;;;;;;;24.09;42.88574;936.9254;;;;
2023/08/08 13:09:38;;;;;;;2.4;0.9;;;;;;;24.22;42.33301;936.8655;;;;
2023/08/08 13:12:03;;;;;;;2.5;1.2;;;;;;;23.87;45.03027;936.899;;;;
2023/08/08 13:14:28;;;;;;;1.2;0.8;;;;;;;24.27;41.98438;936.8546;;;;
2023/08/08 13:16:53;;;;;;;1;0.6;;;;;;;23.98;43.1582;936.9543;;;;
2023/08/08 13:19:21;;;;;;;2.3;0.9;;;;;;;24.23;42.41699;936.9053;;;;
2023/08/08 13:21:43;;;;;;;1.4;0.9;;;;;;;24.78;38.89551;936.9946;;;;
2023/08/08 13:24:12;;;;;;;1;0.7;;;;;;;24.93;38.625;936.9517;;;;
2023/08/08 13:26:34;;;;;;;1.7;0.9;;;;;;;24.61;41.03809;937.0022;;;;
2023/08/08 13:29:00;;;;;;;2;1;;;;;;;24.79;38.5791;936.9736;;;;
2023/08/08 13:31:25;;;;;;;1.1;0.9;;;;;;;24.53;42.5752;936.9637;;;;
2023/08/08 13:33:52;;;;;;;1.6;1;;;;;;;24.72;40.71777;936.9307;;;;
2023/08/08 13:36:17;;;;;;;1.9;0.8;;;;;;;24.46;42.7334;936.8807;;;;
2023/08/08 13:38:42;;;;;;;2.4;0.9;;;;;;;23.89;40.74707;936.8373;;;;
2023/08/08 13:41:08;;;;;;;0.8;0.8;;;;;;;23.81;44;936.8429;;;;
2023/08/08 13:43:33;;;;;;;1;0.8;;;;;;;24.36;40.15527;936.7963;;;;
2023/08/08 13:46:00;;;;;;;1.8;1.1;;;;;;;23.42;42.71582;936.8254;;;;
2023/08/08 13:48:26;;;;;;;1.7;1.1;;;;;;;23.45;44.05859;936.9114;;;;
2023/08/08 13:50:52;;;;;;;5.2;1;;;;;;;23.93;40.35156;936.8898;;;;
2023/08/08 13:53:17;;;;;;;1;0.9;;;;;;;24.07;38.68066;936.8847;;;;
2023/08/08 13:55:44;;;;;;;1.1;1;;;;;;;24.04;38.33594;936.834;;;;
2023/08/08 13:58:08;;;;;;;1.5;0.9;;;;;;;24.45;39.44434;936.8918;;;;
2023/08/08 14:00:33;;;;;;;0.8;0.8;;;;;;;24.39;40.24023;936.8412;;;;
2023/08/08 14:02:58;;;;;;;1.1;0.9;;;;;;;24.5;39.41309;936.8553;;;;
2023/08/08 14:05:25;;;;;;;1;0.8;;;;;;;23.67;42.23438;936.8254;;;;
2023/08/08 14:08:00;;;;;;;2.6;0.9;;;;;;;23.29;44.51367;936.8569;;;;
2023/08/08 14:10:26;;;;;;;0.8;0.8;;;;;;;23.35;42.82617;936.8755;;;;
2023/08/08 14:12:51;;;;;;;0.9;0.8;;;;;;;23.47;41.01563;936.8527;;;;
2023/08/08 14:15:20;;;;;;;1.2;0.9;;;;;;;23.37;42.40625;936.9191;;;;
2023/08/08 14:17:48;;;;;;;0.9;0.9;;;;;;;23.28;42.77246;936.9459;;;;
2023/08/08 14:20:13;;;;;;;1.6;0.8;;;;;;;23.41;43.18555;936.9281;;;;
2023/08/08 14:22:39;;;;;;;1.3;0.8;;;;;;;23.23;43.67285;936.875;;;;
2023/08/08 14:25:05;;;;;;;1.2;0.9;;;;;;;22.75;41.4668;936.8297;;;;
2023/08/08 14:27:34;;;;;;;1.2;0.8;;;;;;;22.97;43.53027;936.8744;;;;
2023/08/08 14:30:01;;;;;;;1.1;0.9;;;;;;;22.85;44.30469;936.9144;;;;
2023/08/08 14:32:26;;;;;;;2.9;0.9;;;;;;;22.96;45.82031;936.9064;;;;
2023/08/08 14:34:54;;;;;;;0.9;0.8;;;;;;;22.65;45.92871;936.9037;;;;
2023/08/08 14:37:23;;;;;;;1.8;1;;;;;;;22.55;47.97168;936.9283;;;;
2023/08/08 14:39:48;;;;;;;1.4;0.9;;;;;;;22.6;43.89355;936.8484;;;;
2023/08/08 14:42:13;;;;;;;1.1;0.9;;;;;;;22.36;44.10449;936.9119;;;;
2023/08/08 14:44:38;;;;;;;5.4;1.3;;;;;;;22.27;45.87793;936.9249;;;;
2023/08/08 14:47:03;;;;;;;0.7;0.7;;;;;;;22.26;45.54883;936.923;;;;
2023/08/08 14:49:30;;;;;;;1;0.8;;;;;;;22.45;49.55664;936.9306;;;;
2023/08/08 14:52:08;;;;;;;2.4;0.8;;;;;;;22.56;47.62012;936.907;;;;
2023/08/08 14:54:34;;;;;;;1.5;1.1;;;;;;;22.67;46.23535;936.9175;;;;
2023/08/08 14:57:00;;;;;;;2.1;0.7;;;;;;;22.41;46.17285;936.9716;;;;
2023/08/08 14:59:24;;;;;;;1.1;1;;;;;;;23.06;45.26563;936.8848;;;;
2023/08/08 15:01:49;;;;;;;0.8;0.8;;;;;;;23.13;44.18164;936.894;;;;
2023/08/08 15:04:16;;;;;;;0.9;0.8;;;;;;;23.04;44.68848;936.8937;;;;
2023/08/08 15:06:41;;;;;;;0.9;0.8;;;;;;;22.43;43.31348;936.8614;;;;
2023/08/08 15:09:08;;;;;;;1.5;0.9;;;;;;;22.44;48.28809;936.9562;;;;
2023/08/08 15:11:33;;;;;;;1.1;1;;;;;;;22.16;45.88965;936.9603;;;;
2023/08/08 15:18:50;;;;;;;0.8;0.8;;;;;;;21.94;46.80469;937.0449;;;;
2023/08/08 15:21:19;;;;;;;1.9;0.8;;;;;;;21.52;45.75293;937.053;;;;
2023/08/08 15:23:43;;;;;;;1.4;0.9;;;;;;;21.33;48.625;937.0453;;;;
2023/08/08 15:26:09;;;;;;;0.7;0.7;;;;;;;21.52;47.49707;937.0125;;;;
2023/08/08 15:28:34;;;;;;;2;0.8;;;;;;;21.36;51.45996;937.085;;;;
2023/08/08 15:31:00;;;;;;;4.2;1.2;;;;;;;21.37;51.23926;937.0722;;;;
2023/08/08 15:33:25;;;;;;;1;0.9;;;;;;;21.69;49.89258;937.0797;;;;
2023/08/08 15:35:53;;;;;;;0.8;0.8;;;;;;;21.61;48.49023;937.1172;;;;
2023/08/08 15:38:17;;;;;;;1;0.9;;;;;;;21.73;48.28027;937.0833;;;;
2023/08/08 15:40:44;;;;;;;0.8;0.8;;;;;;;21.62;48;937.0769;;;;
2023/08/08 15:43:09;;;;;;;2;1;;;;;;;21.73;46.36035;937.0449;;;;
2023/08/08 15:45:35;;;;;;;1.4;0.9;;;;;;;21.36;51.1084;937.1311;;;;
2023/08/08 15:48:00;;;;;;;1.2;1;;;;;;;21.19;50.46973;937.0461;;;;
2023/08/08 15:50:25;;;;;;;3.5;1.2;;;;;;;20.85;49.63477;937.0985;;;;
2023/08/08 15:52:54;;;;;;;1.9;1;;;;;;;21;50.87988;937.1503;;;;